sensor_id;sensor_type;location;lat;lon;timestamp;P1;durP1;ratioP1;P2;durP2;ratioP2
26750;SDS011;14345;48.272;25.926;2023-04-01T00:00:52;9.85;;;6.22;;
26750;SDS011;14345;48.272;25.926;2023-04-01T00:03:18;10.50;;;6.32;;
26750;SDS011;14345;48.272;25.926;2023-04-01T00:05:44;11.25;;;7.07;;
26750;SDS011;14345;48.272;25.926;2023-04-01T00:08:11;12.15;;;7.68;;
26750;SDS011;14345;48.272;25.926;2023-04-01T00:10:37;14.70;;;9.98;;
26750;SDS011;14345;48.272;25.926;2023-04-01T00:13:03;14.55;;;10.15;;
26750;SDS011;14345;48.272;25.926;2023-04-01T00:15:29;24.63;;;15.18;;
26750;SDS011;14345;48.272;25.926;2023-04-01T00:17:55;18.08;;;11.25;;
26750;SDS011;14345;48.272;25.926;2023-04-01T00:20:21;12.70;;;8.63;;
26750;SDS011;14345;48.272;25.926;2023-04-01T00:22:47;9.90;;;6.93;;
26750;SDS011;14345;48.272;25.926;2023-04-01T00:25:13;9.75;;;7.25;;
26750;SDS011;14345;48.272;25.926;2023-04-01T00:27:40;10.38;;;6.88;;
26750;SDS011;14345;48.272;25.926;2023-04-01T00:30:06;11.45;;;7.47;;
26750;SDS011;14345;48.272;25.926;2023-04-01T00:32:33;12.10;;;8.55;;
26750;SDS011;14345;48.272;25.926;2023-04-01T00:35:05;13.65;;;8.23;;
26750;SDS011;14345;48.272;25.926;2023-04-01T00:37:34;13.18;;;8.07;;
26750;SDS011;14345;48.272;25.926;2023-04-01T00:40:00;12.32;;;7.50;;
26750;SDS011;14345;48.272;25.926;2023-04-01T00:42:26;10.00;;;6.43;;
26750;SDS011;14345;48.272;25.926;2023-04-01T00:44:52;10.30;;;6.97;;
26750;SDS011;14345;48.272;25.926;2023-04-01T00:47:19;12.82;;;7.45;;
26750;SDS011;14345;48.272;25.926;2023-04-01T00:49:46;9.40;;;6.47;;
26750;SDS011;14345;48.272;25.926;2023-04-01T00:52:14;10.15;;;6.70;;
26750;SDS011;14345;48.272;25.926;2023-04-01T00:54:42;9.05;;;5.95;;
26750;SDS011;14345;48.272;25.926;2023-04-01T00:57:10;12.50;;;7.47;;
26750;SDS011;14345;48.272;25.926;2023-04-01T00:59:45;10.45;;;7.10;;
26750;SDS011;14345;48.272;25.926;2023-04-01T01:02:12;11.23;;;7.45;;
26750;SDS011;14345;48.272;25.926;2023-04-01T01:04:39;10.73;;;7.03;;
26750;SDS011;14345;48.272;25.926;2023-04-01T01:12:40;9.93;;;6.43;;
26750;SDS011;14345;48.272;25.926;2023-04-01T01:15:16;10.95;;;7.07;;
26750;SDS011;14345;48.272;25.926;2023-04-01T01:33:57;11.02;;;6.75;;
26750;SDS011;14345;48.272;25.926;2023-04-01T01:36:26;10.43;;;6.90;;
26750;SDS011;14345;48.272;25.926;2023-04-01T01:38:54;12.30;;;6.18;;
26750;SDS011;14345;48.272;25.926;2023-04-01T01:41:20;9.75;;;6.43;;
26750;SDS011;14345;48.272;25.926;2023-04-01T01:43:47;8.43;;;5.57;;
26750;SDS011;14345;48.272;25.926;2023-04-01T01:46:16;7.97;;;6.07;;
26750;SDS011;14345;48.272;25.926;2023-04-01T01:48:43;11.57;;;7.25;;
26750;SDS011;14345;48.272;25.926;2023-04-01T01:51:10;9.50;;;6.13;;
26750;SDS011;14345;48.272;25.926;2023-04-01T01:53:36;8.52;;;5.57;;
26750;SDS011;14345;48.272;25.926;2023-04-01T01:56:03;7.65;;;5.97;;
26750;SDS011;14345;48.272;25.926;2023-04-01T01:58:33;7.18;;;5.07;;
26750;SDS011;14345;48.272;25.926;2023-04-01T02:01:06;8.43;;;5.63;;
26750;SDS011;14345;48.272;25.926;2023-04-01T02:03:33;8.95;;;5.55;;
26750;SDS011;14345;48.272;25.926;2023-04-01T02:06:00;8.02;;;5.53;;
26750;SDS011;14345;48.272;25.926;2023-04-01T02:08:31;8.05;;;5.60;;
26750;SDS011;14345;48.272;25.926;2023-04-01T02:11:02;7.63;;;5.60;;
26750;SDS011;14345;48.272;25.926;2023-04-01T02:13:39;7.05;;;5.53;;
26750;SDS011;14345;48.272;25.926;2023-04-01T02:16:11;8.32;;;5.25;;
26750;SDS011;14345;48.272;25.926;2023-04-01T02:18:38;6.80;;;4.75;;
26750;SDS011;14345;48.272;25.926;2023-04-01T02:21:05;7.70;;;5.32;;
26750;SDS011;14345;48.272;25.926;2023-04-01T02:23:32;8.75;;;5.60;;
26750;SDS011;14345;48.272;25.926;2023-04-01T02:25:59;6.75;;;5.47;;
26750;SDS011;14345;48.272;25.926;2023-04-01T02:28:26;9.73;;;5.05;;
26750;SDS011;14345;48.272;25.926;2023-04-01T02:30:52;7.25;;;5.35;;
26750;SDS011;14345;48.272;25.926;2023-04-01T02:33:19;9.00;;;5.22;;
26750;SDS011;14345;48.272;25.926;2023-04-01T02:35:45;6.95;;;5.30;;
26750;SDS011;14345;48.272;25.926;2023-04-01T02:38:12;10.27;;;5.95;;
26750;SDS011;14345;48.272;25.926;2023-04-01T02:40:44;10.20;;;6.38;;
26750;SDS011;14345;48.272;25.926;2023-04-01T02:43:11;7.05;;;5.90;;
26750;SDS011;14345;48.272;25.926;2023-04-01T02:45:37;6.50;;;5.30;;
26750;SDS011;14345;48.272;25.926;2023-04-01T02:48:03;8.05;;;5.70;;
26750;SDS011;14345;48.272;25.926;2023-04-01T02:50:29;8.13;;;5.85;;
26750;SDS011;14345;48.272;25.926;2023-04-01T02:52:55;10.07;;;6.60;;
26750;SDS011;14345;48.272;25.926;2023-04-01T02:55:21;14.15;;;7.32;;
26750;SDS011;14345;48.272;25.926;2023-04-01T02:57:47;8.05;;;6.35;;
26750;SDS011;14345;48.272;25.926;2023-04-01T03:00:13;7.95;;;6.45;;
26750;SDS011;14345;48.272;25.926;2023-04-01T03:02:40;8.27;;;5.90;;
26750;SDS011;14345;48.272;25.926;2023-04-01T03:05:06;7.40;;;6.07;;
26750;SDS011;14345;48.272;25.926;2023-04-01T03:07:33;7.88;;;5.45;;
26750;SDS011;14345;48.272;25.926;2023-04-01T03:09:59;10.50;;;6.35;;
26750;SDS011;14345;48.272;25.926;2023-04-01T03:12:25;7.93;;;6.60;;
26750;SDS011;14345;48.272;25.926;2023-04-01T03:14:51;8.05;;;6.15;;
26750;SDS011;14345;48.272;25.926;2023-04-01T03:17:17;11.07;;;7.28;;
26750;SDS011;14345;48.272;25.926;2023-04-01T03:19:43;9.75;;;6.90;;
26750;SDS011;14345;48.272;25.926;2023-04-01T03:22:12;11.00;;;7.20;;
26750;SDS011;14345;48.272;25.926;2023-04-01T03:24:38;9.63;;;6.40;;
26750;SDS011;14345;48.272;25.926;2023-04-01T03:27:04;11.90;;;7.07;;
26750;SDS011;14345;48.272;25.926;2023-04-01T03:29:30;10.75;;;6.90;;
26750;SDS011;14345;48.272;25.926;2023-04-01T03:31:56;8.55;;;6.00;;
26750;SDS011;14345;48.272;25.926;2023-04-01T03:34:24;9.00;;;5.93;;
26750;SDS011;14345;48.272;25.926;2023-04-01T03:36:50;8.98;;;5.90;;
26750;SDS011;14345;48.272;25.926;2023-04-01T03:39:16;6.63;;;5.03;;
26750;SDS011;14345;48.272;25.926;2023-04-01T03:41:43;8.35;;;5.63;;
26750;SDS011;14345;48.272;25.926;2023-04-01T03:44:10;10.55;;;5.80;;
26750;SDS011;14345;48.272;25.926;2023-04-01T03:46:36;8.15;;;6.10;;
26750;SDS011;14345;48.272;25.926;2023-04-01T03:49:02;8.70;;;5.78;;
26750;SDS011;14345;48.272;25.926;2023-04-01T03:51:28;8.68;;;6.15;;
26750;SDS011;14345;48.272;25.926;2023-04-01T03:53:55;8.50;;;6.20;;
26750;SDS011;14345;48.272;25.926;2023-04-01T03:56:21;10.10;;;6.90;;
26750;SDS011;14345;48.272;25.926;2023-04-01T03:58:47;12.55;;;8.30;;
26750;SDS011;14345;48.272;25.926;2023-04-01T04:01:22;13.48;;;8.90;;
26750;SDS011;14345;48.272;25.926;2023-04-01T04:03:48;13.07;;;9.25;;
26750;SDS011;14345;48.272;25.926;2023-04-01T04:06:14;13.98;;;9.60;;
26750;SDS011;14345;48.272;25.926;2023-04-01T04:08:41;13.55;;;9.60;;
26750;SDS011;14345;48.272;25.926;2023-04-01T04:11:07;13.52;;;8.93;;
26750;SDS011;14345;48.272;25.926;2023-04-01T04:13:33;11.98;;;8.93;;
26750;SDS011;14345;48.272;25.926;2023-04-01T04:16:01;10.27;;;8.13;;
26750;SDS011;14345;48.272;25.926;2023-04-01T04:18:27;11.80;;;8.35;;
26750;SDS011;14345;48.272;25.926;2023-04-01T04:20:53;10.43;;;7.78;;
26750;SDS011;14345;48.272;25.926;2023-04-01T04:23:19;9.38;;;7.18;;
26750;SDS011;14345;48.272;25.926;2023-04-01T04:26:01;10.38;;;7.47;;
26750;SDS011;14345;48.272;25.926;2023-04-01T04:28:28;10.05;;;7.50;;
26750;SDS011;14345;48.272;25.926;2023-04-01T04:30:54;11.65;;;7.05;;
26750;SDS011;14345;48.272;25.926;2023-04-01T04:33:21;11.13;;;7.97;;
26750;SDS011;14345;48.272;25.926;2023-04-01T04:35:47;10.23;;;7.28;;
26750;SDS011;14345;48.272;25.926;2023-04-01T04:38:13;11.98;;;7.72;;
26750;SDS011;14345;48.272;25.926;2023-04-01T04:40:40;9.98;;;6.70;;
26750;SDS011;14345;48.272;25.926;2023-04-01T04:43:06;9.43;;;6.60;;
26750;SDS011;14345;48.272;25.926;2023-04-01T04:45:33;8.85;;;6.82;;
26750;SDS011;14345;48.272;25.926;2023-04-01T04:47:59;8.57;;;6.28;;
26750;SDS011;14345;48.272;25.926;2023-04-01T04:50:25;10.18;;;6.75;;
26750;SDS011;14345;48.272;25.926;2023-04-01T04:52:51;10.57;;;7.38;;
26750;SDS011;14345;48.272;25.926;2023-04-01T04:55:17;10.40;;;7.03;;
26750;SDS011;14345;48.272;25.926;2023-04-01T04:57:43;14.50;;;9.35;;
26750;SDS011;14345;48.272;25.926;2023-04-01T05:00:10;18.40;;;12.93;;
26750;SDS011;14345;48.272;25.926;2023-04-01T05:02:36;16.83;;;10.98;;
26750;SDS011;14345;48.272;25.926;2023-04-01T05:05:02;13.68;;;9.95;;
26750;SDS011;14345;48.272;25.926;2023-04-01T05:07:29;12.68;;;9.32;;
26750;SDS011;14345;48.272;25.926;2023-04-01T05:09:55;16.38;;;12.02;;
26750;SDS011;14345;48.272;25.926;2023-04-01T05:12:21;77.90;;;52.88;;
26750;SDS011;14345;48.272;25.926;2023-04-01T05:14:47;69.72;;;44.83;;
26750;SDS011;14345;48.272;25.926;2023-04-01T05:17:13;40.05;;;26.65;;
26750;SDS011;14345;48.272;25.926;2023-04-01T05:19:39;26.35;;;17.95;;
26750;SDS011;14345;48.272;25.926;2023-04-01T05:22:05;19.73;;;13.20;;
26750;SDS011;14345;48.272;25.926;2023-04-01T05:24:32;18.40;;;13.10;;
26750;SDS011;14345;48.272;25.926;2023-04-01T05:26:58;14.95;;;10.60;;
26750;SDS011;14345;48.272;25.926;2023-04-01T05:29:25;15.18;;;9.57;;
26750;SDS011;14345;48.272;25.926;2023-04-01T05:31:51;13.57;;;9.38;;
26750;SDS011;14345;48.272;25.926;2023-04-01T05:34:17;13.85;;;8.40;;
26750;SDS011;14345;48.272;25.926;2023-04-01T05:36:43;13.35;;;7.97;;
26750;SDS011;14345;48.272;25.926;2023-04-01T05:39:10;12.57;;;8.43;;
26750;SDS011;14345;48.272;25.926;2023-04-01T05:41:36;10.60;;;7.63;;
26750;SDS011;14345;48.272;25.926;2023-04-01T05:44:02;13.75;;;8.18;;
26750;SDS011;14345;48.272;25.926;2023-04-01T05:46:28;12.38;;;8.68;;
26750;SDS011;14345;48.272;25.926;2023-04-01T05:48:54;12.63;;;8.75;;
26750;SDS011;14345;48.272;25.926;2023-04-01T05:51:20;11.80;;;8.20;;
26750;SDS011;14345;48.272;25.926;2023-04-01T05:53:46;15.77;;;9.52;;
26750;SDS011;14345;48.272;25.926;2023-04-01T05:56:13;12.00;;;8.77;;
26750;SDS011;14345;48.272;25.926;2023-04-01T05:58:39;12.43;;;8.48;;
26750;SDS011;14345;48.272;25.926;2023-04-01T06:01:14;10.50;;;7.45;;
26750;SDS011;14345;48.272;25.926;2023-04-01T06:03:40;11.98;;;8.75;;
26750;SDS011;14345;48.272;25.926;2023-04-01T06:06:10;12.48;;;7.25;;
26750;SDS011;14345;48.272;25.926;2023-04-01T06:08:39;10.90;;;8.15;;
26750;SDS011;14345;48.272;25.926;2023-04-01T06:16:09;12.23;;;8.05;;
26750;SDS011;14345;48.272;25.926;2023-04-01T06:39:13;9.60;;;7.50;;
26750;SDS011;14345;48.272;25.926;2023-04-01T06:46:58;12.88;;;7.68;;
26750;SDS011;14345;48.272;25.926;2023-04-01T06:49:29;11.15;;;8.35;;
26750;SDS011;14345;48.272;25.926;2023-04-01T06:54:26;10.02;;;7.70;;
26750;SDS011;14345;48.272;25.926;2023-04-01T06:56:58;11.52;;;7.97;;
26750;SDS011;14345;48.272;25.926;2023-04-01T06:59:28;10.30;;;8.10;;
26750;SDS011;14345;48.272;25.926;2023-04-01T07:01:55;10.77;;;7.93;;
26750;SDS011;14345;48.272;25.926;2023-04-01T07:09:19;11.25;;;8.02;;
26750;SDS011;14345;48.272;25.926;2023-04-01T07:11:45;10.70;;;7.35;;
26750;SDS011;14345;48.272;25.926;2023-04-01T07:16:45;12.32;;;7.70;;
26750;SDS011;14345;48.272;25.926;2023-04-01T07:24:37;10.43;;;7.53;;
26750;SDS011;14345;48.272;25.926;2023-04-01T07:27:05;11.93;;;7.28;;
26750;SDS011;14345;48.272;25.926;2023-04-01T07:29:34;12.82;;;7.95;;
26750;SDS011;14345;48.272;25.926;2023-04-01T07:34:27;13.32;;;8.57;;
26750;SDS011;14345;48.272;25.926;2023-04-01T07:47:03;10.75;;;8.10;;
26750;SDS011;14345;48.272;25.926;2023-04-01T07:49:37;13.48;;;8.85;;
26750;SDS011;14345;48.272;25.926;2023-04-01T07:52:14;16.08;;;10.55;;
26750;SDS011;14345;48.272;25.926;2023-04-01T08:05:09;16.40;;;10.13;;
26750;SDS011;14345;48.272;25.926;2023-04-01T08:10:47;15.45;;;10.82;;
26750;SDS011;14345;48.272;25.926;2023-04-01T08:13:30;14.63;;;10.35;;
26750;SDS011;14345;48.272;25.926;2023-04-01T08:16:08;15.13;;;10.90;;
26750;SDS011;14345;48.272;25.926;2023-04-01T08:21:04;15.23;;;9.73;;
26750;SDS011;14345;48.272;25.926;2023-04-01T08:23:32;13.57;;;8.75;;
26750;SDS011;14345;48.272;25.926;2023-04-01T08:31:09;12.70;;;9.07;;
26750;SDS011;14345;48.272;25.926;2023-04-01T08:33:37;13.82;;;8.57;;
26750;SDS011;14345;48.272;25.926;2023-04-01T08:36:12;12.05;;;8.68;;
26750;SDS011;14345;48.272;25.926;2023-04-01T09:04:03;10.70;;;7.90;;
26750;SDS011;14345;48.272;25.926;2023-04-01T09:09:09;9.73;;;7.03;;
26750;SDS011;14345;48.272;25.926;2023-04-01T09:11:43;10.68;;;6.90;;
26750;SDS011;14345;48.272;25.926;2023-04-01T09:22:17;12.80;;;9.25;;
26750;SDS011;14345;48.272;25.926;2023-04-01T09:24:44;11.50;;;8.23;;
26750;SDS011;14345;48.272;25.926;2023-04-01T09:27:28;10.43;;;7.85;;
26750;SDS011;14345;48.272;25.926;2023-04-01T09:35:22;13.65;;;9.55;;
26750;SDS011;14345;48.272;25.926;2023-04-01T09:37:52;11.27;;;8.25;;
26750;SDS011;14345;48.272;25.926;2023-04-01T09:48:17;15.18;;;9.90;;
26750;SDS011;14345;48.272;25.926;2023-04-01T10:06:34;14.75;;;10.52;;
26750;SDS011;14345;48.272;25.926;2023-04-01T10:14:07;11.30;;;6.43;;
26750;SDS011;14345;48.272;25.926;2023-04-01T10:27:28;12.82;;;6.85;;
26750;SDS011;14345;48.272;25.926;2023-04-01T10:38:11;7.15;;;4.82;;
26750;SDS011;14345;48.272;25.926;2023-04-01T10:48:48;8.50;;;6.15;;
26750;SDS011;14345;48.272;25.926;2023-04-01T11:40:37;7.88;;;4.63;;
26750;SDS011;14345;48.272;25.926;2023-04-01T11:45:49;6.55;;;4.15;;
26750;SDS011;14345;48.272;25.926;2023-04-01T11:56:07;5.88;;;3.45;;
26750;SDS011;14345;48.272;25.926;2023-04-01T12:06:25;3.58;;;3.08;;
26750;SDS011;14345;48.272;25.926;2023-04-01T12:22:38;6.53;;;4.32;;
26750;SDS011;14345;48.272;25.926;2023-04-01T12:25:22;4.40;;;2.53;;
26750;SDS011;14345;48.272;25.926;2023-04-01T12:30:35;3.55;;;2.53;;
26750;SDS011;14345;48.272;25.926;2023-04-01T12:46:11;3.05;;;2.40;;
26750;SDS011;14345;48.272;25.926;2023-04-01T13:01:53;5.55;;;3.30;;
26750;SDS011;14345;48.272;25.926;2023-04-01T13:04:35;4.13;;;3.43;;
26750;SDS011;14345;48.272;25.926;2023-04-01T13:07:50;5.53;;;3.70;;
26750;SDS011;14345;48.272;25.926;2023-04-01T13:10:01;3.72;;;3.13;;
26750;SDS011;14345;48.272;25.926;2023-04-01T13:17:27;3.78;;;2.88;;
26750;SDS011;14345;48.272;25.926;2023-04-01T13:25:19;3.30;;;2.13;;
26750;SDS011;14345;48.272;25.926;2023-04-01T13:28:08;2.90;;;1.77;;
26750;SDS011;14345;48.272;25.926;2023-04-01T13:30:38;2.78;;;2.00;;
26750;SDS011;14345;48.272;25.926;2023-04-01T13:43:59;4.30;;;3.80;;
26750;SDS011;14345;48.272;25.926;2023-04-01T13:56:37;5.45;;;3.58;;
26750;SDS011;14345;48.272;25.926;2023-04-01T13:59:10;3.38;;;2.85;;
26750;SDS011;14345;48.272;25.926;2023-04-01T14:17:42;3.28;;;2.10;;
26750;SDS011;14345;48.272;25.926;2023-04-01T14:20:22;3.15;;;2.22;;
26750;SDS011;14345;48.272;25.926;2023-04-01T14:28:16;5.18;;;2.50;;
26750;SDS011;14345;48.272;25.926;2023-04-01T14:49:14;5.13;;;3.10;;
26750;SDS011;14345;48.272;25.926;2023-04-01T14:51:41;5.25;;;2.88;;
26750;SDS011;14345;48.272;25.926;2023-04-01T14:56:35;4.03;;;3.30;;
26750;SDS011;14345;48.272;25.926;2023-04-01T14:59:04;4.55;;;3.60;;
26750;SDS011;14345;48.272;25.926;2023-04-01T15:04:18;6.93;;;4.72;;
26750;SDS011;14345;48.272;25.926;2023-04-01T15:17:58;8.43;;;5.60;;
26750;SDS011;14345;48.272;25.926;2023-04-01T15:25:43;6.38;;;4.38;;
26750;SDS011;14345;48.272;25.926;2023-04-01T15:31:21;5.25;;;4.40;;
26750;SDS011;14345;48.272;25.926;2023-04-01T15:42:04;4.88;;;3.28;;
26750;SDS011;14345;48.272;25.926;2023-04-01T15:44:40;6.57;;;4.50;;
26750;SDS011;14345;48.272;25.926;2023-04-01T15:57:56;6.00;;;3.90;;
26750;SDS011;14345;48.272;25.926;2023-04-01T16:00:49;5.95;;;3.90;;
26750;SDS011;14345;48.272;25.926;2023-04-01T16:03:18;5.80;;;4.30;;
26750;SDS011;14345;48.272;25.926;2023-04-01T16:13:24;6.22;;;4.68;;
26750;SDS011;14345;48.272;25.926;2023-04-01T16:20:51;6.47;;;4.68;;
26750;SDS011;14345;48.272;25.926;2023-04-01T16:23:34;6.97;;;4.75;;
26750;SDS011;14345;48.272;25.926;2023-04-01T16:26:15;7.55;;;5.05;;
26750;SDS011;14345;48.272;25.926;2023-04-01T16:28:54;10.05;;;6.75;;
26750;SDS011;14345;48.272;25.926;2023-04-01T16:34:10;7.30;;;6.00;;
26750;SDS011;14345;48.272;25.926;2023-04-01T16:44:44;12.07;;;9.75;;
26750;SDS011;14345;48.272;25.926;2023-04-01T16:47:12;15.38;;;12.95;;
26750;SDS011;14345;48.272;25.926;2023-04-01T16:49:42;18.65;;;13.73;;
26750;SDS011;14345;48.272;25.926;2023-04-01T16:54:56;17.55;;;12.68;;
26750;SDS011;14345;48.272;25.926;2023-04-01T17:02:49;11.07;;;7.80;;
26750;SDS011;14345;48.272;25.926;2023-04-01T17:05:18;9.73;;;6.38;;
26750;SDS011;14345;48.272;25.926;2023-04-01T17:15:40;9.43;;;5.75;;
26750;SDS011;14345;48.272;25.926;2023-04-01T17:20:56;11.73;;;7.95;;
26750;SDS011;14345;48.272;25.926;2023-04-01T17:49:38;10.43;;;6.88;;
26750;SDS011;14345;48.272;25.926;2023-04-01T17:57:20;8.60;;;5.70;;
26750;SDS011;14345;48.272;25.926;2023-04-01T18:00:02;8.23;;;5.50;;
26750;SDS011;14345;48.272;25.926;2023-04-01T18:05:35;10.70;;;7.32;;
26750;SDS011;14345;48.272;25.926;2023-04-01T18:18:10;10.20;;;6.40;;
26750;SDS011;14345;48.272;25.926;2023-04-01T18:25:43;10.73;;;7.75;;
26750;SDS011;14345;48.272;25.926;2023-04-01T18:28:30;10.00;;;6.82;;
26750;SDS011;14345;48.272;25.926;2023-04-01T18:36:26;22.40;;;13.80;;
26750;SDS011;14345;48.272;25.926;2023-04-01T18:39:02;25.70;;;15.77;;
26750;SDS011;14345;48.272;25.926;2023-04-01T18:46:47;25.75;;;15.35;;
26750;SDS011;14345;48.272;25.926;2023-04-01T18:52:39;22.70;;;14.23;;
26750;SDS011;14345;48.272;25.926;2023-04-01T18:57:27;19.45;;;11.80;;
26750;SDS011;14345;48.272;25.926;2023-04-01T19:00:04;21.30;;;13.27;;
26750;SDS011;14345;48.272;25.926;2023-04-01T19:02:34;24.65;;;14.95;;
26750;SDS011;14345;48.272;25.926;2023-04-01T19:05:09;20.42;;;13.63;;
26750;SDS011;14345;48.272;25.926;2023-04-01T19:28:54;43.78;;;28.17;;
26750;SDS011;14345;48.272;25.926;2023-04-01T19:42:05;47.17;;;30.08;;
26750;SDS011;14345;48.272;25.926;2023-04-01T19:47:12;42.80;;;27.48;;
26750;SDS011;14345;48.272;25.926;2023-04-01T19:54:54;43.95;;;28.65;;
26750;SDS011;14345;48.272;25.926;2023-04-01T19:57:26;44.90;;;29.17;;
26750;SDS011;14345;48.272;25.926;2023-04-01T20:00:07;42.47;;;26.60;;
26750;SDS011;14345;48.272;25.926;2023-04-01T20:02:59;40.55;;;25.00;;
26750;SDS011;14345;48.272;25.926;2023-04-01T20:07:54;43.40;;;27.88;;
26750;SDS011;14345;48.272;25.926;2023-04-01T20:15:33;36.05;;;24.30;;
26750;SDS011;14345;48.272;25.926;2023-04-01T20:18:00;33.20;;;22.27;;
26750;SDS011;14345;48.272;25.926;2023-04-01T20:20:28;41.75;;;22.73;;
26750;SDS011;14345;48.272;25.926;2023-04-01T20:23:41;31.60;;;20.30;;
26750;SDS011;14345;48.272;25.926;2023-04-01T20:28:21;25.50;;;17.73;;
26750;SDS011;14345;48.272;25.926;2023-04-01T20:33:36;23.27;;;15.65;;
26750;SDS011;14345;48.272;25.926;2023-04-01T20:51:15;22.30;;;15.65;;
26750;SDS011;14345;48.272;25.926;2023-04-01T20:53:53;28.13;;;18.55;;
26750;SDS011;14345;48.272;25.926;2023-04-01T20:56:35;25.55;;;17.80;;
26750;SDS011;14345;48.272;25.926;2023-04-01T21:04:40;24.70;;;16.02;;
26750;SDS011;14345;48.272;25.926;2023-04-01T21:10:11;21.83;;;14.90;;
26750;SDS011;14345;48.272;25.926;2023-04-01T21:17:58;18.75;;;12.30;;
26750;SDS011;14345;48.272;25.926;2023-04-01T21:25:56;21.73;;;12.77;;
26750;SDS011;14345;48.272;25.926;2023-04-01T21:28:54;17.27;;;10.70;;
26750;SDS011;14345;48.272;25.926;2023-04-01T21:36:24;15.70;;;10.05;;
26750;SDS011;14345;48.272;25.926;2023-04-01T21:41:44;12.57;;;9.13;;
26750;SDS011;14345;48.272;25.926;2023-04-01T21:44:30;12.95;;;8.00;;
26750;SDS011;14345;48.272;25.926;2023-04-01T21:47:08;10.32;;;7.75;;
26750;SDS011;14345;48.272;25.926;2023-04-01T21:55:06;13.07;;;8.93;;
26750;SDS011;14345;48.272;25.926;2023-04-01T22:00:18;15.23;;;9.10;;
26750;SDS011;14345;48.272;25.926;2023-04-01T22:13:16;13.05;;;9.80;;
26750;SDS011;14345;48.272;25.926;2023-04-01T22:26:18;17.67;;;11.10;;
26750;SDS011;14345;48.272;25.926;2023-04-01T22:28:56;18.47;;;12.37;;
26750;SDS011;14345;48.272;25.926;2023-04-01T22:31:25;15.10;;;10.95;;
26750;SDS011;14345;48.272;25.926;2023-04-01T22:43:57;11.57;;;8.95;;
26750;SDS011;14345;48.272;25.926;2023-04-01T22:56:40;12.52;;;8.25;;
26750;SDS011;14345;48.272;25.926;2023-04-01T22:59:11;9.75;;;6.43;;
26750;SDS011;14345;48.272;25.926;2023-04-01T23:01:41;10.20;;;6.78;;
26750;SDS011;14345;48.272;25.926;2023-04-01T23:04:09;9.68;;;6.82;;
26750;SDS011;14345;48.272;25.926;2023-04-01T23:06:39;10.32;;;6.53;;
26750;SDS011;14345;48.272;25.926;2023-04-01T23:11:35;10.70;;;6.88;;
26750;SDS011;14345;48.272;25.926;2023-04-01T23:16:35;9.55;;;6.30;;
26750;SDS011;14345;48.272;25.926;2023-04-01T23:19:13;7.80;;;6.00;;
26750;SDS011;14345;48.272;25.926;2023-04-01T23:21:54;10.20;;;6.82;;
26750;SDS011;14345;48.272;25.926;2023-04-01T23:27:20;12.80;;;7.88;;
26750;SDS011;14345;48.272;25.926;2023-04-01T23:29:47;12.57;;;8.07;;
26750;SDS011;14345;48.272;25.926;2023-04-01T23:32:14;11.10;;;8.00;;
26750;SDS011;14345;48.272;25.926;2023-04-01T23:34:40;12.23;;;8.77;;
26750;SDS011;14345;48.272;25.926;2023-04-01T23:37:11;11.55;;;8.10;;
26750;SDS011;14345;48.272;25.926;2023-04-01T23:39:41;13.15;;;8.77;;
26750;SDS011;14345;48.272;25.926;2023-04-01T23:42:13;12.00;;;8.13;;
26750;SDS011;14345;48.272;25.926;2023-04-01T23:44:40;12.23;;;8.40;;
26750;SDS011;14345;48.272;25.926;2023-04-01T23:47:07;11.90;;;8.00;;
26750;SDS011;14345;48.272;25.926;2023-04-01T23:49:45;13.50;;;8.77;;
26750;SDS011;14345;48.272;25.926;2023-04-01T23:52:36;11.02;;;8.40;;
26750;SDS011;14345;48.272;25.926;2023-04-01T23:55:03;12.10;;;8.55;;
26750;SDS011;14345;48.272;25.926;2023-04-01T23:57:31;10.35;;;7.88;;
